createdAt,value
2019-05-26T00:02:01.225Z,10.35
2019-05-26T00:04:32.560Z,10.34
2019-05-26T00:07:30.460Z,10.29
2019-05-26T00:10:16.010Z,10.29
2019-05-26T00:13:07.035Z,10.27
2019-05-26T00:15:40.029Z,10.22
2019-05-26T00:18:10.701Z,10.21
2019-05-26T00:20:47.697Z,10.20
2019-05-26T00:23:37.459Z,10.17
2019-05-26T00:26:08.824Z,10.18
2019-05-26T00:28:58.699Z,10.12
2019-05-26T00:31:31.868Z,9.22
2019-05-26T00:34:02.960Z,10.04
2019-05-26T00:36:35.809Z,10.04
2019-05-26T00:39:25.778Z,10.03
2019-05-26T00:42:15.882Z,10.02
2019-05-26T00:45:05.664Z,10.00
2019-05-26T00:47:38.532Z,9.97
2019-05-26T00:50:10.121Z,9.98
2019-05-26T00:52:59.936Z,9.99
2019-05-26T00:55:30.810Z,9.96
2019-05-26T00:58:20.487Z,9.96
2019-05-26T01:00:51.250Z,9.90
2019-05-26T01:03:43.601Z,9.89
2019-05-26T01:06:34.109Z,9.90
2019-05-26T01:09:24.030Z,9.88
2019-05-26T01:14:45.788Z,9.83
2019-05-26T01:17:36.885Z,9.82
2019-05-26T01:20:26.601Z,9.86
2019-05-26T01:22:57.778Z,9.89
2019-05-26T01:25:28.463Z,9.84
2019-05-26T01:28:18.799Z,9.80
2019-05-26T01:30:52.806Z,9.78
2019-05-26T01:33:43.285Z,9.71
2019-05-26T01:36:14.195Z,9.64
2019-05-26T01:38:47.062Z,9.65
2019-05-26T01:41:36.647Z,9.58
2019-05-26T01:44:07.499Z,9.55
2019-05-26T01:46:58.241Z,9.49
2019-05-26T01:49:29.021Z,9.49
2019-05-26T01:52:18.609Z,9.43
2019-05-26T01:55:08.203Z,9.39
2019-05-26T01:57:58.026Z,9.36
2019-05-26T02:00:48.017Z,9.31
2019-05-26T02:03:38.254Z,9.28
2019-05-26T02:06:28.337Z,9.23
2019-05-26T02:09:18.477Z,9.25
2019-05-26T02:12:00.144Z,9.18
2019-05-26T02:14:42.028Z,9.13
2019-05-26T02:20:06.014Z,9.06
2019-05-26T02:22:56.407Z,9.05
2019-05-26T02:25:46.136Z,9.04
2019-05-26T02:28:17.140Z,8.99
2019-05-26T02:31:07.398Z,8.91
2019-05-26T02:33:57.224Z,8.94
2019-05-26T02:36:46.971Z,8.91
2019-05-26T02:39:36.708Z,8.91
2019-05-26T02:42:26.386Z,8.87
2019-05-26T02:45:17.612Z,8.86
2019-05-26T02:48:07.385Z,8.81
2019-05-26T02:50:57.248Z,8.78
2019-05-26T02:53:47.642Z,8.76
2019-05-26T02:56:37.614Z,8.75
2019-05-26T02:59:27.479Z,8.74
2019-05-26T03:02:17.285Z,8.72
2019-05-26T03:05:08.727Z,8.68
2019-05-26T03:07:58.515Z,8.67
2019-05-26T03:11:08.710Z,8.64
2019-05-26T03:13:50.540Z,8.61
2019-05-26T03:16:32.903Z,8.59
2019-05-26T03:19:14.750Z,8.59
2019-05-26T03:21:56.754Z,8.57
2019-05-26T03:25:06.601Z,8.57
2019-05-26T03:27:56.850Z,8.64
2019-05-26T03:30:27.742Z,8.62
2019-05-26T03:33:18.091Z,8.59
2019-05-26T03:36:10.452Z,8.53
2019-05-26T03:38:59.485Z,8.55
2019-05-26T03:41:49.265Z,8.58
2019-05-26T03:44:39.066Z,8.57
2019-05-26T03:47:28.882Z,8.57
2019-05-26T03:50:18.997Z,8.57
2019-05-26T03:53:08.835Z,8.55
2019-05-26T03:55:58.975Z,8.56
2019-05-26T03:58:48.912Z,8.59
2019-05-26T04:01:38.826Z,8.62
2019-05-26T04:04:30.728Z,8.60
2019-05-26T04:07:20.620Z,8.54
2019-05-26T04:10:30.513Z,8.51
2019-05-26T04:13:01.409Z,8.47
2019-05-26T04:22:02.817Z,8.49
2019-05-26T04:24:52.768Z,8.55
2019-05-26T04:27:42.761Z,8.65
2019-05-26T04:30:32.535Z,8.72
2019-05-26T04:33:03.421Z,8.78
2019-05-26T04:35:53.938Z,8.86
2019-05-26T04:39:02.817Z,8.94
2019-05-26T04:41:52.480Z,9.04
2019-05-26T04:44:42.856Z,9.15
2019-05-26T04:47:33.367Z,8.42
2019-05-26T04:50:23.572Z,9.21
2019-05-26T04:53:13.347Z,9.16
2019-05-26T04:55:44.288Z,9.17
2019-05-26T04:58:35.226Z,9.18
2019-05-26T05:01:25.071Z,9.24
2019-05-26T05:04:14.679Z,9.27
2019-05-26T05:07:06.146Z,9.37
2019-05-26T05:09:56.334Z,9.47
2019-05-26T05:12:37.918Z,9.55
2019-05-26T05:15:20.331Z,9.68
2019-05-26T05:18:03.099Z,9.78
2019-05-26T05:23:28.788Z,10.00
2019-05-26T05:26:11.297Z,10.11
2019-05-26T05:28:52.239Z,10.23
2019-05-26T05:31:42.633Z,10.30
2019-05-26T05:34:32.548Z,10.36
2019-05-26T05:37:25.145Z,10.47
2019-05-26T05:40:13.832Z,10.55
2019-05-26T05:43:05.150Z,10.64
2019-05-26T05:45:55.319Z,10.74
2019-05-26T05:48:45.155Z,10.88
2019-05-26T05:51:34.952Z,11.02
2019-05-26T05:54:06.287Z,11.13
2019-05-26T05:56:56.283Z,11.22
2019-05-26T05:59:46.327Z,11.34
2019-05-26T06:02:36.404Z,11.46
2019-05-26T06:05:26.385Z,11.60
2019-05-26T06:08:17.686Z,11.71
2019-05-26T06:11:16.681Z,11.85
2019-05-26T06:13:40.270Z,11.97
2019-05-26T06:16:30.237Z,12.11
2019-05-26T06:19:19.931Z,12.24
2019-05-26T06:22:10.117Z,12.39
2019-05-26T06:24:59.948Z,12.57
2019-05-26T06:27:41.592Z,12.74
2019-05-26T06:33:23.119Z,13.05
2019-05-26T06:36:12.969Z,13.18
2019-05-26T06:38:44.277Z,13.27
2019-05-26T06:44:11.990Z,13.52
2019-05-26T06:46:43.048Z,13.74
2019-05-26T06:49:14.458Z,13.89
2019-05-26T06:51:45.400Z,14.01
2019-05-26T07:01:11.889Z,14.25
2019-05-26T07:03:42.802Z,14.35
2019-05-26T07:06:23.630Z,14.53
2019-05-26T07:08:55.016Z,14.61
2019-05-26T07:11:54.253Z,14.80
2019-05-26T07:14:37.857Z,14.98
2019-05-26T07:17:27.637Z,15.18
2019-05-26T07:19:59.402Z,15.32
2019-05-26T07:22:49.207Z,15.35
2019-05-26T07:26:00.788Z,15.50
2019-05-26T07:28:36.546Z,15.67
2019-05-26T07:31:10.570Z,15.79
2019-05-26T07:34:00.343Z,15.87
2019-05-26T07:36:31.316Z,15.96
2019-05-26T07:39:02.229Z,16.09
2019-05-26T07:41:33.301Z,16.24
2019-05-26T07:44:23.794Z,16.31
2019-05-26T07:47:13.850Z,15.84
2019-05-26T07:50:04.770Z,16.59
2019-05-26T07:52:54.686Z,16.57
2019-05-26T07:55:44.536Z,16.66
2019-05-26T07:58:17.522Z,16.85
2019-05-26T08:00:58.455Z,17.05
2019-05-26T08:04:11.542Z,17.16
2019-05-26T08:07:01.821Z,17.41
2019-05-26T08:09:34.264Z,17.75
2019-05-26T08:12:24.941Z,17.90
2019-05-26T08:14:46.926Z,18.06
2019-05-26T08:17:21.277Z,18.07
2019-05-26T08:22:25.283Z,18.54
2019-05-26T08:25:00.717Z,18.69
2019-05-26T08:27:50.632Z,18.97
2019-05-26T08:30:45.271Z,19.23
2019-05-26T08:33:35.242Z,19.38
2019-05-26T08:36:09.978Z,20.00
2019-05-26T08:39:01.990Z,20.81
2019-05-26T08:41:32.802Z,21.72
2019-05-26T08:44:17.290Z,22.24
2019-05-26T08:46:48.770Z,22.69
2019-05-26T08:49:20.892Z,22.68
2019-05-26T08:51:52.341Z,23.15
2019-05-26T08:54:23.409Z,23.51
2019-05-26T08:57:14.383Z,23.46
2019-05-26T09:00:04.511Z,23.48
2019-05-26T09:02:54.403Z,23.26
2019-05-26T09:05:44.382Z,23.84
2019-05-26T09:08:34.175Z,23.69
2019-05-26T09:11:25.045Z,24.45
2019-05-26T09:14:36.556Z,25.11
2019-05-26T09:17:26.533Z,25.93
2019-05-26T09:20:16.484Z,26.61
2019-05-26T09:22:47.557Z,27.51
2019-05-26T09:25:19.017Z,27.00
2019-05-26T09:27:50.999Z,27.04
2019-05-26T09:30:23.464Z,26.99
2019-05-26T09:36:40.451Z,27.00
2019-05-26T09:39:11.769Z,25.13
2019-05-26T09:42:01.410Z,23.17
2019-05-26T09:44:47.179Z,22.19
2019-05-26T09:47:24.790Z,21.73
2019-05-26T09:50:06.903Z,21.38
2019-05-26T09:52:48.777Z,20.97
2019-05-26T09:55:19.965Z,22.34
2019-05-26T09:57:51.500Z,23.74
2019-05-26T10:00:42.973Z,24.65
2019-05-26T10:03:36.146Z,25.36
2019-05-26T10:06:26.553Z,26.17
2019-05-26T10:09:16.772Z,26.62
2019-05-26T10:11:50.633Z,26.18
2019-05-26T10:14:21.790Z,26.64
2019-05-26T10:17:11.578Z,26.69
2019-05-26T10:19:43.059Z,27.01
2019-05-26T10:22:32.929Z,26.11
2019-05-26T10:25:25.150Z,26.78
2019-05-26T10:28:16.857Z,27.34
2019-05-26T10:31:08.593Z,26.86
2019-05-26T10:33:59.617Z,26.42
2019-05-26T10:36:30.720Z,26.11
2019-05-26T10:39:04.109Z,26.03
2019-05-26T10:41:35.672Z,25.80
2019-05-26T10:44:07.035Z,25.10
2019-05-26T10:46:38.997Z,24.83
2019-05-26T10:49:29.595Z,23.81
2019-05-26T10:52:01.074Z,22.97
2019-05-26T10:54:32.264Z,22.64
2019-05-26T10:57:24.032Z,22.22
2019-05-26T11:00:14.031Z,21.70
2019-05-26T11:02:45.612Z,21.40
2019-05-26T11:05:35.612Z,21.54
2019-05-26T11:08:25.432Z,21.39
2019-05-26T11:10:57.506Z,21.10
2019-05-26T11:13:28.840Z,20.95
2019-05-26T11:16:10.262Z,21.03
2019-05-26T11:19:00.038Z,20.90
2019-05-26T11:21:33.786Z,20.32
2019-05-26T11:24:08.299Z,20.68
2019-05-26T11:26:40.746Z,20.79
2019-05-26T11:29:14.063Z,20.87
2019-05-26T11:32:03.913Z,21.26
2019-05-26T11:35:01.753Z,22.75
2019-05-26T11:37:48.517Z,23.52
2019-05-26T11:40:38.552Z,23.86
2019-05-26T11:43:28.397Z,23.68
2019-05-26T11:46:21.655Z,23.73
2019-05-26T11:49:12.102Z,22.89
2019-05-26T11:51:54.304Z,23.36
2019-05-26T11:54:36.858Z,23.63
2019-05-26T11:57:18.421Z,23.56
2019-05-26T12:00:00.503Z,23.38
2019-05-26T12:02:44.833Z,23.41
2019-05-26T12:08:11.192Z,21.78
2019-05-26T12:10:53.207Z,22.34
2019-05-26T12:13:36.744Z,22.09
2019-05-26T12:16:08.387Z,21.68
2019-05-26T12:18:58.536Z,21.37
2019-05-26T12:22:08.465Z,21.49
2019-05-26T12:24:41.284Z,22.05
2019-05-26T12:27:32.686Z,22.88
2019-05-26T12:30:23.275Z,23.41
2019-05-26T12:32:55.491Z,23.91
2019-05-26T12:35:47.248Z,24.27
2019-05-26T12:38:18.647Z,24.15
2019-05-26T12:41:11.619Z,24.20
2019-05-26T12:43:43.642Z,23.82
2019-05-26T12:46:33.887Z,25.19
2019-05-26T12:49:27.521Z,25.87
2019-05-26T12:51:58.886Z,25.69
2019-05-26T12:55:10.210Z,24.30
2019-05-26T12:58:03.127Z,23.61
2019-05-26T13:00:54.954Z,22.95
2019-05-26T13:03:45.031Z,22.46
2019-05-26T13:06:38.118Z,22.14
2019-05-26T13:09:27.922Z,22.33
2019-05-26T13:12:18.107Z,23.02
2019-05-26T13:15:09.249Z,24.74
2019-05-26T13:17:51.505Z,24.11
2019-05-26T13:20:32.308Z,23.10
2019-05-26T13:23:03.530Z,22.76
2019-05-26T13:25:53.521Z,23.60
2019-05-26T13:28:43.271Z,24.12
2019-05-26T13:31:14.231Z,24.88
2019-05-26T13:33:45.215Z,26.18
2019-05-26T13:36:16.544Z,26.86
2019-05-26T13:39:10.457Z,28.74
2019-05-26T13:41:44.172Z,29.00
2019-05-26T13:44:54.044Z,28.26
2019-05-26T13:47:26.525Z,29.31
2019-05-26T13:50:17.008Z,29.34
2019-05-26T13:53:06.782Z,27.60
2019-05-26T13:55:56.652Z,25.40
2019-05-26T13:58:46.448Z,23.96
2019-05-26T14:01:36.252Z,23.36
2019-05-26T14:04:27.621Z,24.36
2019-05-26T14:07:17.568Z,27.01
2019-05-26T14:10:07.742Z,28.43
2019-05-26T14:12:58.640Z,29.64
2019-05-26T14:15:48.957Z,30.13
2019-05-26T14:18:30.499Z,30.62
2019-05-26T14:21:01.767Z,30.81
2019-05-26T14:23:51.723Z,30.97
2019-05-26T14:26:41.604Z,31.25
2019-05-26T14:29:31.521Z,31.45
2019-05-26T14:32:21.315Z,30.85
2019-05-26T14:35:11.157Z,31.54
2019-05-26T14:38:20.853Z,31.56
2019-05-26T14:41:14.151Z,31.18
2019-05-26T14:44:03.760Z,32.03
2019-05-26T14:46:55.524Z,31.28
2019-05-26T14:49:45.356Z,31.86
2019-05-26T14:52:35.514Z,30.62
2019-05-26T14:55:25.510Z,29.34
2019-05-26T14:58:16.680Z,30.71
2019-05-26T15:01:07.023Z,31.47
2019-05-26T15:03:56.714Z,33.37
2019-05-26T15:06:46.552Z,33.27
2019-05-26T15:09:25.208Z,32.75
2019-05-26T15:12:10.571Z,31.11
2019-05-26T15:14:52.675Z,29.77
2019-05-26T15:17:23.993Z,29.21
2019-05-26T15:20:14.338Z,27.39
2019-05-26T15:23:04.186Z,26.87
2019-05-26T15:25:36.105Z,25.91
2019-05-26T15:28:07.227Z,24.35
2019-05-26T15:30:57.135Z,23.64
2019-05-26T15:33:28.409Z,23.73
2019-05-26T15:36:21.213Z,23.75
2019-05-26T15:39:10.971Z,23.45
2019-05-26T15:41:42.373Z,23.49
2019-05-26T15:44:14.109Z,23.51
2019-05-26T15:47:03.927Z,22.99
2019-05-26T15:49:35.113Z,22.81
2019-05-26T15:52:25.012Z,22.80
2019-05-26T15:55:17.262Z,22.89
2019-05-26T15:58:07.104Z,23.26
2019-05-26T16:00:58.011Z,23.50
2019-05-26T16:03:48.270Z,23.83
2019-05-26T16:06:40.961Z,23.93
2019-05-26T16:09:12.191Z,23.66
2019-05-26T16:11:43.741Z,23.87
2019-05-26T16:14:34.903Z,23.37
2019-05-26T16:17:16.828Z,23.10
2019-05-26T16:19:59.314Z,23.34
2019-05-26T16:25:26.524Z,23.64
2019-05-26T16:28:07.375Z,23.94
2019-05-26T16:30:57.221Z,23.81
2019-05-26T16:33:47.083Z,23.76
2019-05-26T16:36:21.092Z,23.47
2019-05-26T16:41:45.127Z,23.28
2019-05-26T16:44:16.548Z,23.28
2019-05-26T16:47:26.713Z,22.92
2019-05-26T16:50:20.702Z,22.73
2019-05-26T16:52:54.658Z,22.70
2019-05-26T16:55:30.658Z,22.79
2019-05-26T16:58:01.706Z,22.60
2019-05-26T17:00:51.515Z,22.50
2019-05-26T17:03:41.359Z,22.33
2019-05-26T17:06:31.100Z,22.23
2019-05-26T17:09:04.002Z,22.33
2019-05-26T17:12:08.544Z,22.35
2019-05-26T17:14:28.524Z,22.04
2019-05-26T17:17:18.666Z,22.04
2019-05-26T17:19:52.649Z,21.97
2019-05-26T17:22:45.014Z,21.90
2019-05-26T17:25:47.119Z,21.55
2019-05-26T17:28:39.487Z,21.67
2019-05-26T17:31:42.058Z,21.56
2019-05-26T17:37:14.021Z,21.45
2019-05-26T17:40:09.427Z,21.16
2019-05-26T17:46:18.508Z,20.81
2019-05-26T17:53:07.827Z,20.46
2019-05-26T17:56:08.171Z,20.23
2019-05-26T17:59:01.454Z,20.03
2019-05-26T18:01:39.152Z,19.88
2019-05-26T18:04:58.790Z,19.76
2019-05-26T18:08:01.771Z,19.67
2019-05-26T18:11:15.701Z,19.36
2019-05-26T18:14:49.432Z,19.09
2019-05-26T18:21:06.999Z,18.73
2019-05-26T18:24:14.628Z,18.58
2019-05-26T18:26:48.474Z,18.30
2019-05-26T18:29:35.218Z,18.16
2019-05-26T18:32:08.720Z,18.16
2019-05-26T18:35:03.811Z,18.03
2019-05-26T18:37:35.611Z,18.00
2019-05-26T18:40:12.272Z,17.91
2019-05-26T18:43:04.868Z,17.83
2019-05-26T18:46:00.359Z,17.81
2019-05-26T18:48:54.106Z,17.63
2019-05-26T18:55:01.145Z,17.46
2019-05-26T18:57:51.218Z,17.32
2019-05-26T19:00:30.334Z,17.22
2019-05-26T19:03:14.861Z,17.04
2019-05-26T19:05:49.265Z,16.92
2019-05-26T19:08:40.853Z,16.77
2019-05-26T19:11:30.898Z,16.02
2019-05-26T19:14:03.405Z,16.04
2019-05-26T19:16:53.986Z,16.42
2019-05-26T19:19:26.324Z,16.27
2019-05-26T19:22:16.001Z,16.15
2019-05-26T19:24:47.182Z,16.04
2019-05-26T19:27:29.036Z,15.89
2019-05-26T19:30:00.279Z,15.77
2019-05-26T19:32:42.434Z,15.64
2019-05-26T19:35:25.022Z,15.58
2019-05-26T19:37:57.706Z,15.46
2019-05-26T19:40:47.881Z,15.38
2019-05-26T19:43:18.935Z,15.31
2019-05-26T19:46:09.605Z,15.28
2019-05-26T19:48:40.786Z,15.18
2019-05-26T19:51:13.016Z,15.09
2019-05-26T19:53:46.447Z,14.99
2019-05-26T19:56:37.436Z,14.89
2019-05-26T19:59:08.621Z,14.88
2019-05-26T20:01:39.687Z,14.80
2019-05-26T20:04:29.525Z,14.76
2019-05-26T20:07:00.791Z,14.66
2019-05-26T20:09:34.855Z,14.57
2019-05-26T20:12:24.740Z,14.52
2019-05-26T20:14:55.934Z,13.52
2019-05-26T20:17:27.064Z,14.36
2019-05-26T20:19:58.537Z,14.29
2019-05-26T20:22:29.916Z,14.23
2019-05-26T20:25:02.629Z,14.20
2019-05-26T20:27:35.233Z,14.18
2019-05-26T20:30:26.781Z,14.18
2019-05-26T20:33:16.462Z,14.15
2019-05-26T20:35:47.411Z,14.10
2019-05-26T20:38:37.341Z,14.05
2019-05-26T20:41:27.406Z,14.02
2019-05-26T20:44:17.330Z,13.94
2019-05-26T20:47:08.107Z,13.89
2019-05-26T20:49:58.346Z,13.72
2019-05-26T20:52:49.204Z,13.74
2019-05-26T20:55:21.759Z,13.70
2019-05-26T20:57:52.970Z,13.62
2019-05-26T21:00:43.738Z,13.56
2019-05-26T21:03:38.121Z,13.57
2019-05-26T21:06:09.478Z,13.48
2019-05-26T21:08:42.229Z,13.39
2019-05-26T21:11:14.886Z,13.37
2019-05-26T21:13:46.742Z,13.32
2019-05-26T21:16:40.958Z,13.26
2019-05-26T21:19:31.017Z,13.23
2019-05-26T21:22:13.011Z,13.21
2019-05-26T21:24:44.014Z,13.19
2019-05-26T21:27:33.649Z,13.16
2019-05-26T21:34:02.517Z,13.08
2019-05-26T21:37:19.699Z,13.06
2019-05-26T21:40:33.100Z,13.04
2019-05-26T21:43:27.810Z,13.05
2019-05-26T21:46:18.240Z,13.03
2019-05-26T21:48:49.381Z,13.07
2019-05-26T21:51:40.353Z,12.91
2019-05-26T21:54:22.777Z,12.84
2019-05-26T21:57:04.590Z,12.77
2019-05-26T21:59:35.732Z,12.82
2019-05-26T22:02:25.523Z,12.78
2019-05-26T22:04:56.473Z,12.74
2019-05-26T22:07:27.845Z,12.66
2019-05-26T22:10:17.903Z,12.65
2019-05-26T22:13:09.022Z,12.54
2019-05-26T22:15:58.975Z,12.49
2019-05-26T22:18:48.928Z,12.34
2019-05-26T22:21:38.798Z,12.30
2019-05-26T22:24:10.166Z,12.23
2019-05-26T22:26:42.490Z,12.18
2019-05-26T22:29:13.610Z,12.19
2019-05-26T22:31:44.767Z,12.14
2019-05-26T22:34:34.601Z,12.09
2019-05-26T22:37:24.574Z,12.08
2019-05-26T22:39:55.469Z,12.05
2019-05-26T22:42:26.330Z,12.00
2019-05-26T22:44:59.813Z,12.01
2019-05-26T22:47:49.607Z,11.98
2019-05-26T22:50:39.507Z,11.94
2019-05-26T22:53:11.602Z,11.85
2019-05-26T22:55:42.848Z,11.79
2019-05-26T22:58:32.638Z,11.77
2019-05-26T23:01:04.049Z,11.72
2019-05-26T23:03:55.283Z,11.68
2019-05-26T23:06:45.058Z,11.66
2019-05-26T23:09:17.157Z,11.64
2019-05-26T23:11:49.131Z,11.62
2019-05-26T23:14:20.416Z,11.58
2019-05-26T23:17:10.483Z,11.54
2019-05-26T23:19:41.556Z,11.53
2019-05-26T23:22:31.356Z,11.47
2019-05-26T23:25:02.563Z,11.44
2019-05-26T23:27:33.661Z,11.36
2019-05-26T23:30:23.594Z,11.34
2019-05-26T23:32:54.714Z,11.28
2019-05-26T23:35:26.021Z,11.24
2019-05-26T23:37:56.801Z,11.21
2019-05-26T23:40:28.100Z,11.18
2019-05-26T23:42:58.896Z,11.15
2019-05-26T23:45:48.611Z,11.18
2019-05-26T23:48:19.520Z,11.19
2019-05-26T23:50:50.473Z,11.20
2019-05-26T23:53:23.551Z,11.19
2019-05-26T23:55:58.443Z,11.19
2019-05-26T23:58:48.265Z,11.17
